PWSweather.com
Personal Weather Stations
Station Observations
IMAZOWIE6
WarszawaPL

WarszawaPL

Lat: 52.27957, Lon: 21.05489

Elevation: 100

Station Type: WS1080

http://stacjapogody.waw.pl/

High Low Average
Temperature 76.8°F24.9°C 59.2°F15.1°C 65.6°F18.7°C
Dew Point -165.1°F-109.5°C -166.9°F-110.5°C -166.2°F-110.1°C
Winds 4.8 mph 7.7 kmh Calm Calm 2.0 mph N3.2 kmh N
Wind Gusts 10.2 mph16.4 kmh 1.4 mph2.3 kmh 5.0 mph8.0 kmh
Humidity - - -
Pressure 29.45 in997.3 mb 29.39 in995.3 mb -
Precipitation 0.00 in0.0 mm - -
Hour Temp Dew Point Humidity Winds Wind Gusts Pressure Precip Precip Rate Daily Precip Total
12:04 AM 61.9°F16.6°C -166.6°F-110.3°C - 0.6 mph N1.0 kmh N 2.8 mph4.5 kmh 29.40 in995.6 mb 0.00 in0.0 mm 0.00 in0.0 mm 0.00 in0.0 mm
12:19 AM 61.7°F16.5°C -166.6°F-110.3°C - 0.6 mph N1.0 kmh N 4.0 mph6.4 kmh 29.40 in995.6 mb 0.01 in0.3 mm 0.05 in1.3 mm 0.01 in0.3 mm
12:34 AM 61.5°F16.4°C -166.6°F-110.3°C - 1.4 mph N2.3 kmh N 2.8 mph4.5 kmh 29.40 in995.6 mb 0.01 in0.3 mm 0.00 in0.0 mm 0.01 in0.3 mm
12:49 AM 61.7°F16.5°C -166.6°F-110.3°C - 1.4 mph N2.3 kmh N 2.8 mph4.5 kmh 29.40 in995.6 mb 0.01 in0.3 mm 0.00 in0.0 mm 0.01 in0.3 mm
01:04 AM 61.5°F16.4°C -166.6°F-110.3°C - 1.4 mph N2.3 kmh N 4.0 mph6.4 kmh 29.40 in995.6 mb 0.01 in0.3 mm 0.00 in0.0 mm 0.01 in0.3 mm
01:19 AM 61.2°F16.2°C -166.7°F-110.4°C - 0.6 mph N1.0 kmh N 2.8 mph4.5 kmh 29.40 in995.6 mb 0.00 in0.0 mm 0.00 in0.0 mm 0.01 in0.3 mm
01:34 AM 61.0°F16.1°C -166.7°F-110.4°C - 1.4 mph N2.3 kmh N 4.0 mph6.4 kmh 29.39 in995.3 mb 0.00 in0.0 mm 0.00 in0.0 mm 0.01 in0.3 mm
01:49 AM 61.0°F16.1°C -166.7°F-110.4°C - 1.4 mph N2.3 kmh N 3.4 mph5.5 kmh 29.39 in995.3 mb 0.00 in0.0 mm 0.00 in0.0 mm 0.01 in0.3 mm
02:04 AM 60.6°F15.9°C -166.7°F-110.4°C - 1.4 mph N2.3 kmh N 3.4 mph5.5 kmh 29.40 in995.6 mb 0.00 in0.0 mm 0.00 in0.0 mm 0.01 in0.3 mm
02:19 AM 61.2°F16.2°C -166.7°F-110.4°C - 2.0 mph N3.2 kmh N 4.0 mph6.4 kmh 29.39 in995.3 mb 0.00 in0.0 mm 0.00 in0.0 mm 0.01 in0.3 mm
02:35 AM 60.8°F16.0°C -166.7°F-110.4°C - 1.4 mph N2.3 kmh N 4.0 mph6.4 kmh 29.39 in995.3 mb 0.00 in0.0 mm 0.00 in0.0 mm 0.01 in0.3 mm
02:49 AM 60.8°F16.0°C -166.7°F-110.4°C - 2.8 mph N4.5 kmh N 5.4 mph8.7 kmh 29.39 in995.3 mb 0.00 in0.0 mm 0.00 in0.0 mm 0.01 in0.3 mm
03:04 AM 60.6°F15.9°C -166.7°F-110.4°C - 1.4 mph N2.3 kmh N 3.4 mph5.5 kmh 29.39 in995.3 mb 0.00 in0.0 mm 0.00 in0.0 mm 0.01 in0.3 mm
03:19 AM 60.4°F15.8°C -166.8°F-110.4°C - 2.0 mph N3.2 kmh N 4.0 mph6.4 kmh 29.39 in995.3 mb 0.00 in0.0 mm 0.00 in0.0 mm 0.01 in0.3 mm
03:34 AM 60.6°F15.9°C -166.7°F-110.4°C - 2.0 mph N3.2 kmh N 4.8 mph7.7 kmh 29.40 in995.6 mb 0.00 in0.0 mm 0.00 in0.0 mm 0.01 in0.3 mm
03:49 AM 60.4°F15.8°C -166.8°F-110.4°C - 2.0 mph N3.2 kmh N 4.0 mph6.4 kmh 29.40 in995.6 mb 0.00 in0.0 mm 0.00 in0.0 mm 0.01 in0.3 mm
04:04 AM 60.4°F15.8°C -166.8°F-110.4°C - 2.0 mph N3.2 kmh N 4.0 mph6.4 kmh 29.41 in995.9 mb 0.00 in0.0 mm 0.00 in0.0 mm 0.01 in0.3 mm
04:19 AM 60.6°F15.9°C -166.7°F-110.4°C - 2.0 mph N3.2 kmh N 4.8 mph7.7 kmh 29.40 in995.6 mb 0.00 in0.0 mm 0.00 in0.0 mm 0.01 in0.3 mm
04:34 AM 60.8°F16.0°C -166.7°F-110.4°C - Calm Calm 2.8 mph4.5 kmh 29.40 in995.6 mb 0.01 in0.3 mm 0.05 in1.3 mm 0.02 in0.5 mm
04:49 AM 61.0°F16.1°C -166.7°F-110.4°C - 1.4 mph N2.3 kmh N 3.4 mph5.5 kmh 29.40 in995.6 mb 0.01 in0.3 mm 0.00 in0.0 mm 0.02 in0.5 mm
05:04 AM 62.2°F16.8°C -166.6°F-110.3°C - 1.4 mph N2.3 kmh N 2.8 mph4.5 kmh 29.40 in995.6 mb 0.01 in0.3 mm 0.00 in0.0 mm 0.02 in0.5 mm
05:19 AM 70.3°F21.3°C -165.8°F-109.9°C - 3.4 mph N5.5 kmh N 8.2 mph13.2 kmh 29.40 in995.6 mb 0.00 in0.0 mm 0.00 in0.0 mm 0.02 in0.5 mm
05:34 AM 73.8°F23.2°C -165.4°F-109.7°C - 2.0 mph N3.2 kmh N 4.0 mph6.4 kmh 29.40 in995.6 mb 0.00 in0.0 mm 0.00 in0.0 mm 0.02 in0.5 mm
05:49 AM 76.6°F24.8°C -165.1°F-109.5°C - 2.0 mph N3.2 kmh N 4.8 mph7.7 kmh 29.40 in995.6 mb 0.00 in0.0 mm 0.00 in0.0 mm 0.02 in0.5 mm
06:04 AM 76.8°F24.9°C -165.1°F-109.5°C - 0.6 mph N1.0 kmh N 4.0 mph6.4 kmh 29.40 in995.6 mb 0.00 in0.0 mm 0.00 in0.0 mm 0.02 in0.5 mm
06:19 AM 76.6°F24.8°C -165.1°F-109.5°C - 2.0 mph N3.2 kmh N 5.4 mph8.7 kmh 29.40 in995.6 mb 0.00 in0.0 mm 0.00 in0.0 mm 0.02 in0.5 mm
06:34 AM 70.2°F21.2°C -165.8°F-109.9°C - 2.0 mph N3.2 kmh N 5.4 mph8.7 kmh 29.39 in995.3 mb 0.00 in0.0 mm 0.00 in0.0 mm 0.02 in0.5 mm
06:49 AM 66.9°F19.4°C -166.1°F-110.1°C - 2.0 mph N3.2 kmh N 4.8 mph7.7 kmh 29.40 in995.6 mb 0.00 in0.0 mm 0.00 in0.0 mm 0.02 in0.5 mm
07:04 AM 65.7°F18.7°C -166.2°F-110.1°C - 2.8 mph N4.5 kmh N 6.2 mph10.0 kmh 29.40 in995.6 mb 0.00 in0.0 mm 0.00 in0.0 mm 0.02 in0.5 mm
07:19 AM 65.1°F18.4°C -166.3°F-110.2°C - 1.4 mph N2.3 kmh N 2.8 mph4.5 kmh 29.41 in995.9 mb 0.00 in0.0 mm 0.00 in0.0 mm 0.02 in0.5 mm
07:34 AM 64.8°F18.2°C -166.3°F-110.2°C - 4.0 mph N6.4 kmh N 8.2 mph13.2 kmh 29.41 in995.9 mb 0.00 in0.0 mm 0.00 in0.0 mm 0.02 in0.5 mm
07:49 AM 65.7°F18.7°C -166.2°F-110.1°C - 2.0 mph N3.2 kmh N 6.8 mph10.9 kmh 29.40 in995.6 mb 0.00 in0.0 mm 0.00 in0.0 mm 0.02 in0.5 mm
08:04 AM 65.1°F18.4°C -166.3°F-110.2°C - 0.6 mph N1.0 kmh N 4.0 mph6.4 kmh 29.41 in995.9 mb 0.00 in0.0 mm 0.00 in0.0 mm 0.02 in0.5 mm
08:19 AM 64.9°F18.3°C -166.3°F-110.2°C - 2.0 mph N3.2 kmh N 4.0 mph6.4 kmh 29.41 in995.9 mb 0.00 in0.0 mm 0.00 in0.0 mm 0.02 in0.5 mm
08:34 AM 67.8°F19.9°C -166.0°F-110.0°C - 2.0 mph N3.2 kmh N 6.8 mph10.9 kmh 29.41 in995.9 mb 0.00 in0.0 mm 0.00 in0.0 mm 0.02 in0.5 mm
08:49 AM 70.2°F21.2°C -165.8°F-109.9°C - 0.6 mph N1.0 kmh N 3.4 mph5.5 kmh 29.41 in995.9 mb 0.00 in0.0 mm 0.00 in0.0 mm 0.02 in0.5 mm
09:04 AM 67.8°F19.9°C -166.0°F-110.0°C - 2.8 mph N4.5 kmh N 6.2 mph10.0 kmh 29.41 in995.9 mb 0.00 in0.0 mm 0.00 in0.0 mm 0.02 in0.5 mm
09:19 AM 68.9°F20.5°C -165.9°F-109.9°C - 2.8 mph N4.5 kmh N 6.2 mph10.0 kmh 29.42 in996.3 mb 0.00 in0.0 mm 0.00 in0.0 mm 0.02 in0.5 mm
09:34 AM 68.7°F20.4°C -165.9°F-109.9°C - 1.4 mph N2.3 kmh N 3.4 mph5.5 kmh 29.41 in995.9 mb 0.00 in0.0 mm 0.00 in0.0 mm 0.02 in0.5 mm
09:49 AM 68.7°F20.4°C -165.9°F-109.9°C - 3.4 mph N5.5 kmh N 6.2 mph10.0 kmh 29.42 in996.3 mb 0.00 in0.0 mm 0.00 in0.0 mm 0.02 in0.5 mm
10:04 AM 66.6°F19.2°C -166.1°F-110.1°C - 4.0 mph N6.4 kmh N 8.8 mph14.2 kmh 29.42 in996.3 mb 0.00 in0.0 mm 0.00 in0.0 mm 0.02 in0.5 mm
10:19 AM 67.5°F19.7°C -166.1°F-110.1°C - 3.4 mph N5.5 kmh N 5.4 mph8.7 kmh 29.42 in996.3 mb 0.00 in0.0 mm 0.00 in0.0 mm 0.02 in0.5 mm
10:34 AM 68.2°F20.1°C -166.0°F-110.0°C - 1.4 mph N2.3 kmh N 4.0 mph6.4 kmh 29.42 in996.3 mb 0.00 in0.0 mm 0.00 in0.0 mm 0.02 in0.5 mm
10:49 AM 69.3°F20.7°C -165.9°F-109.9°C - 2.0 mph N3.2 kmh N 5.4 mph8.7 kmh 29.42 in996.3 mb 0.00 in0.0 mm 0.00 in0.0 mm 0.02 in0.5 mm
11:04 AM 69.4°F20.8°C -165.9°F-109.9°C - 2.8 mph N4.5 kmh N 7.4 mph11.9 kmh 29.42 in996.3 mb 0.00 in0.0 mm 0.00 in0.0 mm 0.02 in0.5 mm
11:19 AM 69.4°F20.8°C -165.9°F-109.9°C - 2.8 mph N4.5 kmh N 4.8 mph7.7 kmh 29.41 in995.9 mb 0.00 in0.0 mm 0.00 in0.0 mm 0.02 in0.5 mm
11:34 AM 71.6°F22.0°C -165.6°F-109.8°C - 4.0 mph N6.4 kmh N 6.2 mph10.0 kmh 29.42 in996.3 mb 0.00 in0.0 mm 0.00 in0.0 mm 0.02 in0.5 mm
11:49 AM 71.8°F22.1°C -165.6°F-109.8°C - 3.4 mph N5.5 kmh N 6.8 mph10.9 kmh 29.41 in995.9 mb 0.00 in0.0 mm 0.00 in0.0 mm 0.02 in0.5 mm
12:04 PM 70.2°F21.2°C -165.8°F-109.9°C - 2.8 mph N4.5 kmh N 5.4 mph8.7 kmh 29.42 in996.3 mb 0.00 in0.0 mm 0.00 in0.0 mm 0.02 in0.5 mm
12:19 PM 69.4°F20.8°C -165.9°F-109.9°C - 2.8 mph N4.5 kmh N 5.4 mph8.7 kmh 29.42 in996.3 mb 0.00 in0.0 mm 0.00 in0.0 mm 0.02 in0.5 mm
12:34 PM 70.0°F21.1°C -165.8°F-109.9°C - 2.0 mph N3.2 kmh N 3.4 mph5.5 kmh 29.42 in996.3 mb 0.00 in0.0 mm 0.00 in0.0 mm 0.02 in0.5 mm
12:49 PM 68.4°F20.2°C -166.0°F-110.0°C - 4.0 mph N6.4 kmh N 10.2 mph16.4 kmh 29.42 in996.3 mb 0.00 in0.0 mm 0.00 in0.0 mm 0.02 in0.5 mm
01:04 PM 68.9°F20.5°C -165.9°F-109.9°C - 1.4 mph N2.3 kmh N 3.4 mph5.5 kmh 29.41 in995.9 mb 0.00 in0.0 mm 0.00 in0.0 mm 0.02 in0.5 mm
01:19 PM 70.2°F21.2°C -165.8°F-109.9°C - 2.8 mph N4.5 kmh N 6.2 mph10.0 kmh 29.42 in996.3 mb 0.00 in0.0 mm 0.00 in0.0 mm 0.02 in0.5 mm
01:34 PM 68.4°F20.2°C -166.0°F-110.0°C - 4.0 mph N6.4 kmh N 6.2 mph10.0 kmh 29.42 in996.3 mb 0.00 in0.0 mm 0.00 in0.0 mm 0.02 in0.5 mm
01:49 PM 67.8°F19.9°C -166.0°F-110.0°C - 1.4 mph N2.3 kmh N 4.8 mph7.7 kmh 29.42 in996.3 mb 0.00 in0.0 mm 0.00 in0.0 mm 0.02 in0.5 mm
02:04 PM 66.6°F19.2°C -166.1°F-110.1°C - 2.8 mph N4.5 kmh N 4.8 mph7.7 kmh 29.42 in996.3 mb 0.00 in0.0 mm 0.00 in0.0 mm 0.02 in0.5 mm
02:19 PM 68.5°F20.3°C -165.9°F-109.9°C - 1.4 mph N2.3 kmh N 3.4 mph5.5 kmh 29.41 in995.9 mb 0.00 in0.0 mm 0.00 in0.0 mm 0.02 in0.5 mm
02:34 PM 67.3°F19.6°C -166.1°F-110.1°C - 3.4 mph N5.5 kmh N 6.2 mph10.0 kmh 29.42 in996.3 mb 0.00 in0.0 mm 0.00 in0.0 mm 0.02 in0.5 mm
02:49 PM 67.3°F19.6°C -166.1°F-110.1°C - 2.8 mph N4.5 kmh N 6.2 mph10.0 kmh 29.42 in996.3 mb 0.00 in0.0 mm 0.00 in0.0 mm 0.02 in0.5 mm
03:04 PM 68.5°F20.3°C -165.9°F-109.9°C - 2.0 mph N3.2 kmh N 4.0 mph6.4 kmh 29.42 in996.3 mb 0.00 in0.0 mm 0.00 in0.0 mm 0.02 in0.5 mm
03:19 PM 68.5°F20.3°C -165.9°F-109.9°C - 4.8 mph N7.7 kmh N 9.6 mph15.4 kmh 29.42 in996.3 mb 0.00 in0.0 mm 0.00 in0.0 mm 0.02 in0.5 mm
03:34 PM 68.4°F20.2°C -166.0°F-110.0°C - Calm Calm 1.4 mph2.3 kmh 29.42 in996.3 mb 0.00 in0.0 mm 0.00 in0.0 mm 0.02 in0.5 mm
03:49 PM 68.7°F20.4°C -165.9°F-109.9°C - 2.8 mph N4.5 kmh N 7.4 mph11.9 kmh 29.42 in996.3 mb 0.00 in0.0 mm 0.00 in0.0 mm 0.02 in0.5 mm
04:04 PM 68.9°F20.5°C -165.9°F-109.9°C - 0.6 mph N1.0 kmh N 6.2 mph10.0 kmh 29.42 in996.3 mb 0.00 in0.0 mm 0.00 in0.0 mm 0.02 in0.5 mm
04:19 PM 69.3°F20.7°C -165.9°F-109.9°C - 0.6 mph N1.0 kmh N 3.4 mph5.5 kmh 29.42 in996.3 mb 0.00 in0.0 mm 0.00 in0.0 mm 0.02 in0.5 mm
04:34 PM 69.6°F20.9°C -165.8°F-109.9°C - 2.8 mph N4.5 kmh N 6.2 mph10.0 kmh 29.42 in996.3 mb 0.00 in0.0 mm 0.00 in0.0 mm 0.02 in0.5 mm
04:49 PM 69.1°F20.6°C -165.9°F-109.9°C - 4.0 mph N6.4 kmh N 7.4 mph11.9 kmh 29.42 in996.3 mb 0.00 in0.0 mm 0.00 in0.0 mm 0.02 in0.5 mm
05:04 PM 68.7°F20.4°C -165.9°F-109.9°C - 2.8 mph N4.5 kmh N 5.4 mph8.7 kmh 29.42 in996.3 mb 0.00 in0.0 mm 0.00 in0.0 mm 0.02 in0.5 mm
05:19 PM 68.2°F20.1°C -166.0°F-110.0°C - 0.6 mph N1.0 kmh N 3.4 mph5.5 kmh 29.42 in996.3 mb 0.00 in0.0 mm 0.00 in0.0 mm 0.02 in0.5 mm
05:34 PM 68.2°F20.1°C -166.0°F-110.0°C - 1.4 mph N2.3 kmh N 4.0 mph6.4 kmh 29.42 in996.3 mb 0.00 in0.0 mm 0.00 in0.0 mm 0.02 in0.5 mm
05:49 PM 68.0°F20.0°C -166.0°F-110.0°C - 3.4 mph N5.5 kmh N 8.2 mph13.2 kmh 29.43 in996.6 mb 0.00 in0.0 mm 0.00 in0.0 mm 0.02 in0.5 mm
06:04 PM 67.3°F19.6°C -166.1°F-110.1°C - 0.6 mph N1.0 kmh N 2.0 mph3.2 kmh 29.42 in996.3 mb 0.00 in0.0 mm 0.00 in0.0 mm 0.02 in0.5 mm
06:19 PM 66.9°F19.4°C -166.1°F-110.1°C - 3.4 mph N5.5 kmh N 6.2 mph10.0 kmh 29.42 in996.3 mb 0.00 in0.0 mm 0.00 in0.0 mm 0.02 in0.5 mm
06:34 PM 66.6°F19.2°C -166.1°F-110.1°C - 2.0 mph N3.2 kmh N 4.0 mph6.4 kmh 29.43 in996.6 mb 0.00 in0.0 mm 0.00 in0.0 mm 0.02 in0.5 mm
06:49 PM 66.4°F19.1°C -166.2°F-110.1°C - 3.4 mph N5.5 kmh N 6.8 mph10.9 kmh 29.42 in996.3 mb 0.00 in0.0 mm 0.00 in0.0 mm 0.02 in0.5 mm
07:04 PM 65.8°F18.8°C -166.2°F-110.1°C - 2.0 mph N3.2 kmh N 5.4 mph8.7 kmh 29.43 in996.6 mb 0.00 in0.0 mm 0.00 in0.0 mm 0.02 in0.5 mm
07:19 PM 65.5°F18.6°C -166.3°F-110.2°C - 2.0 mph N3.2 kmh N 4.0 mph6.4 kmh 29.42 in996.3 mb 0.00 in0.0 mm 0.00 in0.0 mm 0.02 in0.5 mm
07:34 PM 64.6°F18.1°C -166.3°F-110.2°C - 1.4 mph N2.3 kmh N 2.8 mph4.5 kmh 29.43 in996.6 mb 0.00 in0.0 mm 0.00 in0.0 mm 0.02 in0.5 mm
07:49 PM 64.0°F17.8°C -166.4°F-110.2°C - 1.4 mph N2.3 kmh N 3.4 mph5.5 kmh 29.43 in996.6 mb 0.00 in0.0 mm 0.00 in0.0 mm 0.02 in0.5 mm
08:04 PM 63.7°F17.6°C -166.4°F-110.2°C - 2.0 mph N3.2 kmh N 4.0 mph6.4 kmh 29.44 in997.0 mb 0.00 in0.0 mm 0.00 in0.0 mm 0.02 in0.5 mm
08:19 PM 63.1°F17.3°C -166.5°F-110.3°C - 1.4 mph N2.3 kmh N 3.4 mph5.5 kmh 29.44 in997.0 mb 0.00 in0.0 mm 0.00 in0.0 mm 0.02 in0.5 mm
08:34 PM 62.8°F17.1°C -166.5°F-110.3°C - 2.0 mph N3.2 kmh N 4.0 mph6.4 kmh 29.44 in997.0 mb 0.00 in0.0 mm 0.00 in0.0 mm 0.02 in0.5 mm
08:49 PM 62.4°F16.9°C -166.6°F-110.3°C - 2.0 mph N3.2 kmh N 4.8 mph7.7 kmh 29.44 in997.0 mb 0.00 in0.0 mm 0.00 in0.0 mm 0.02 in0.5 mm
09:04 PM 62.2°F16.8°C -166.6°F-110.3°C - 1.4 mph N2.3 kmh N 4.0 mph6.4 kmh 29.44 in997.0 mb 0.00 in0.0 mm 0.00 in0.0 mm 0.02 in0.5 mm
09:19 PM 61.7°F16.5°C -166.6°F-110.3°C - 1.4 mph N2.3 kmh N 3.4 mph5.5 kmh 29.45 in997.3 mb 0.00 in0.0 mm 0.00 in0.0 mm 0.02 in0.5 mm
09:34 PM 61.3°F16.3°C -166.7°F-110.4°C - 1.4 mph N2.3 kmh N 3.4 mph5.5 kmh 29.45 in997.3 mb 0.00 in0.0 mm 0.00 in0.0 mm 0.02 in0.5 mm
09:49 PM 61.0°F16.1°C -166.7°F-110.4°C - 2.8 mph N4.5 kmh N 5.4 mph8.7 kmh 29.44 in997.0 mb 0.00 in0.0 mm 0.00 in0.0 mm 0.02 in0.5 mm
10:04 PM 60.6°F15.9°C -166.7°F-110.4°C - 0.6 mph N1.0 kmh N 2.8 mph4.5 kmh 29.44 in997.0 mb 0.00 in0.0 mm 0.00 in0.0 mm 0.02 in0.5 mm
10:19 PM 60.1°F15.6°C -166.8°F-110.4°C - 0.6 mph N1.0 kmh N 2.0 mph3.2 kmh 29.44 in997.0 mb 0.00 in0.0 mm 0.00 in0.0 mm 0.02 in0.5 mm
10:34 PM 59.7°F15.4°C -166.8°F-110.4°C - 1.4 mph N2.3 kmh N 2.8 mph4.5 kmh 29.44 in997.0 mb 0.00 in0.0 mm 0.00 in0.0 mm 0.02 in0.5 mm
10:49 PM 59.5°F15.3°C -166.8°F-110.4°C - 1.4 mph N2.3 kmh N 4.8 mph7.7 kmh 29.44 in997.0 mb 0.00 in0.0 mm 0.00 in0.0 mm 0.02 in0.5 mm
11:04 PM 59.4°F15.2°C -166.9°F-110.5°C - 0.6 mph N1.0 kmh N 2.8 mph4.5 kmh 29.44 in997.0 mb 0.00 in0.0 mm 0.00 in0.0 mm 0.02 in0.5 mm
11:19 PM 59.2°F15.1°C -166.9°F-110.5°C - 1.4 mph N2.3 kmh N 3.4 mph5.5 kmh 29.45 in997.3 mb 0.00 in0.0 mm 0.00 in0.0 mm 0.02 in0.5 mm
11:34 PM 59.5°F15.3°C -166.8°F-110.4°C - Calm Calm 1.4 mph2.3 kmh 29.45 in997.3 mb 0.00 in0.0 mm 0.00 in0.0 mm 0.02 in0.5 mm
11:49 PM 59.5°F15.3°C -166.8°F-110.4°C - 2.0 mph N3.2 kmh N 4.8 mph7.7 kmh 29.45 in997.3 mb 0.00 in0.0 mm 0.00 in0.0 mm 0.02 in0.5 mm